createdAt,value
2018-11-22T12:15:53.322Z,24.93
2018-11-22T12:18:21.860Z,30.50
2018-11-22T12:20:50.393Z,27.50
2018-11-22T12:23:19.521Z,24.83
2018-11-22T12:25:48.105Z,24.67
2018-11-22T12:28:16.607Z,25.57
2018-11-22T12:30:45.182Z,26.77
2018-11-22T12:33:19.892Z,26.50
2018-11-22T12:35:54.326Z,23.50
2018-11-22T12:38:28.570Z,24.90
2018-11-22T12:40:57.037Z,23.37
2018-11-22T12:43:25.713Z,26.23
2018-11-22T12:45:54.254Z,26.07
2018-11-22T12:48:22.786Z,25.20
2018-11-22T12:50:51.341Z,28.37
2018-11-22T12:53:20.540Z,26.00
2018-11-22T12:55:49.065Z,23.20
2018-11-22T12:58:17.646Z,25.13
2018-11-22T13:00:46.138Z,25.10
2018-11-22T13:03:14.686Z,27.30
2018-11-22T13:05:43.210Z,22.80
2018-11-22T13:08:11.792Z,23.97
2018-11-22T13:10:40.381Z,26.57
2018-11-22T13:13:09.160Z,28.50
2018-11-22T13:15:37.738Z,26.53
2018-11-22T13:18:06.322Z,27.27
2018-11-22T13:20:34.870Z,24.80
2018-11-22T13:23:03.456Z,26.03
2018-11-22T13:25:31.944Z,28.97
2018-11-22T13:28:00.423Z,25.63
2018-11-22T13:30:29.431Z,24.67
2018-11-22T13:32:58.604Z,22.53
2018-11-22T13:35:27.131Z,21.00
2018-11-22T13:37:56.427Z,30.00
2018-11-22T13:40:25.095Z,32.77
2018-11-22T13:42:54.289Z,26.37
2018-11-22T13:45:24.238Z,28.60
2018-11-22T13:47:53.811Z,27.00
2018-11-22T13:50:25.092Z,28.07
2018-11-22T13:52:55.482Z,27.17
2018-11-22T13:55:24.080Z,30.03
2018-11-22T13:57:52.635Z,27.23
2018-11-22T14:00:23.572Z,24.70
2018-11-22T14:02:53.681Z,27.93
2018-11-22T14:05:22.300Z,27.73
2018-11-22T14:07:50.995Z,28.93
2018-11-22T14:10:20.197Z,25.53
2018-11-22T14:12:48.907Z,28.10
2018-11-22T14:15:20.050Z,27.33
2018-11-22T14:17:49.801Z,29.53
2018-11-22T14:20:20.460Z,27.43
2018-11-22T14:22:49.195Z,31.53
2018-11-22T14:25:18.029Z,27.10
2018-11-22T14:27:48.194Z,24.63
2018-11-22T14:30:21.003Z,23.63
2018-11-22T14:32:50.559Z,22.43
2018-11-22T14:35:20.264Z,23.17
2018-11-22T14:37:48.883Z,25.53
2018-11-22T14:40:27.216Z,27.97
2018-11-22T14:42:56.496Z,26.70
2018-11-22T14:45:25.580Z,29.60
2018-11-22T14:47:55.421Z,26.60
2018-11-22T14:50:27.934Z,24.83
2018-11-22T14:53:01.440Z,25.80
2018-11-22T14:55:30.012Z,29.50
2018-11-22T14:57:58.547Z,29.63
2018-11-22T15:00:27.105Z,27.00
2018-11-22T15:02:55.769Z,27.60
2018-11-22T15:05:24.458Z,29.93
2018-11-22T15:07:53.098Z,28.70
2018-11-22T15:10:22.296Z,30.27
2018-11-22T15:12:50.858Z,31.90
2018-11-22T15:15:21.451Z,29.67
2018-11-22T15:17:50.143Z,30.70
2018-11-22T15:20:20.473Z,32.17
2018-11-22T15:22:49.902Z,33.17
2018-11-22T15:25:20.876Z,34.10
2018-11-22T15:27:49.552Z,31.77
2018-11-22T15:30:20.774Z,36.93
2018-11-22T15:32:49.542Z,28.20
2018-11-22T15:35:19.564Z,27.10
2018-11-22T15:37:48.297Z,28.30
2018-11-22T15:40:18.299Z,28.80
2018-11-22T15:42:48.531Z,22.60
2018-11-22T15:45:18.166Z,29.40
2018-11-22T15:47:47.005Z,28.83
2018-11-22T15:50:16.946Z,27.57
2018-11-22T15:52:45.504Z,24.33
2018-11-22T15:55:20.769Z,28.20
2018-11-22T15:57:44.530Z,29.30
2018-11-22T16:00:15.695Z,28.83
2018-11-22T16:02:45.256Z,27.53
2018-11-22T16:05:14.431Z,31.57
2018-11-22T16:07:43.565Z,34.43
2018-11-22T16:10:14.902Z,29.50
2018-11-22T16:12:43.891Z,28.33
2018-11-22T16:15:15.145Z,24.47
2018-11-22T16:17:43.745Z,28.00
2018-11-22T16:20:12.266Z,34.10
2018-11-22T16:22:40.998Z,30.03
2018-11-22T16:25:11.088Z,30.67
2018-11-22T16:27:39.885Z,34.23
2018-11-22T16:30:11.286Z,30.83
2018-11-22T16:32:39.924Z,29.87
2018-11-22T16:35:10.176Z,27.77
2018-11-22T16:37:38.655Z,30.73
2018-11-22T16:40:10.480Z,36.00
2018-11-22T16:42:39.882Z,28.80
2018-11-22T16:45:15.846Z,33.13
2018-11-22T16:47:44.420Z,31.13
2018-11-22T16:50:13.648Z,26.40
2018-11-22T16:52:43.183Z,28.63
2018-11-22T16:55:12.289Z,41.93
2018-11-22T16:57:41.881Z,39.53
2018-11-22T17:00:18.081Z,31.90
2018-11-22T17:02:47.476Z,29.80
2018-11-22T17:05:16.493Z,41.83
2018-11-22T17:07:45.582Z,38.87
2018-11-22T17:10:15.602Z,38.53
2018-11-22T17:12:45.637Z,34.30
2018-11-22T17:15:15.527Z,39.57
2018-11-22T17:17:44.470Z,41.27
2018-11-22T17:20:14.293Z,45.03
2018-11-22T17:22:43.456Z,46.47
2018-11-22T17:25:17.271Z,46.17
2018-11-22T17:27:46.609Z,39.77
2018-11-22T17:30:17.986Z,35.20
2018-11-22T17:32:47.281Z,42.50
2018-11-22T17:35:19.216Z,32.90
2018-11-22T17:37:47.781Z,41.73
2018-11-22T17:40:19.861Z,43.20
2018-11-22T17:42:48.654Z,47.87
2018-11-22T17:45:24.368Z,48.73
2018-11-22T17:47:53.361Z,44.60
2018-11-22T17:50:23.521Z,38.30
2018-11-22T17:52:52.050Z,41.07
2018-11-22T17:55:22.086Z,43.57
2018-11-22T17:57:51.574Z,44.57
2018-11-22T18:00:26.441Z,47.10
2018-11-22T18:02:56.654Z,39.57
2018-11-22T18:05:27.332Z,38.33
2018-11-22T18:07:55.738Z,34.60
2018-11-22T18:10:26.159Z,47.63
2018-11-22T18:12:55.536Z,38.10
2018-11-22T18:15:24.773Z,32.70
2018-11-22T18:17:54.032Z,39.87
2018-11-22T18:20:24.200Z,37.00
2018-11-22T18:22:54.053Z,39.20
2018-11-22T18:25:24.120Z,43.10
2018-11-22T18:27:53.239Z,44.13
2018-11-22T18:30:25.003Z,44.47
2018-11-22T18:32:55.273Z,41.93
2018-11-22T18:35:24.135Z,41.43
2018-11-22T18:37:52.858Z,42.10
2018-11-22T18:40:24.879Z,37.50
2018-11-22T18:42:54.881Z,35.53
2018-11-22T18:45:29.329Z,34.60
2018-11-22T18:47:57.903Z,39.57
2018-11-22T18:50:28.042Z,39.47
2018-11-22T18:52:56.610Z,37.43
2018-11-22T18:55:25.798Z,42.80
2018-11-22T18:57:54.339Z,34.40
2018-11-22T19:00:26.047Z,34.43
2018-11-22T19:02:56.006Z,39.17
2018-11-22T19:05:25.445Z,37.80
2018-11-22T19:07:54.764Z,48.20
2018-11-22T19:10:34.798Z,36.57
2018-11-22T19:13:07.295Z,39.20
2018-11-22T19:15:37.316Z,44.90
2018-11-22T19:18:07.121Z,43.30
2018-11-22T19:20:38.174Z,32.53
2018-11-22T19:23:08.094Z,41.23
2018-11-22T19:25:37.351Z,36.07
2018-11-22T19:28:07.126Z,36.27
2018-11-22T19:30:37.692Z,39.17
2018-11-22T19:33:07.885Z,35.03
2018-11-22T19:35:38.794Z,34.87
2018-11-22T19:38:08.042Z,43.67
2018-11-22T19:40:38.037Z,37.30
2018-11-22T19:43:08.335Z,42.10
2018-11-22T19:45:38.711Z,40.57
2018-11-22T19:48:07.766Z,40.47
2018-11-22T19:50:37.189Z,40.20
2018-11-22T19:53:10.548Z,47.03
2018-11-22T19:55:41.058Z,41.70
2018-11-22T19:58:11.130Z,35.73
2018-11-22T20:00:40.490Z,40.87
2018-11-22T20:03:10.083Z,35.77
2018-11-22T20:05:40.672Z,37.43
2018-11-22T20:08:23.911Z,41.53
2018-11-22T20:10:59.485Z,36.67
2018-11-22T20:13:30.014Z,35.20
2018-11-22T20:15:59.638Z,28.47
2018-11-22T20:18:31.152Z,43.53
2018-11-22T20:21:00.310Z,33.50
2018-11-22T20:23:30.231Z,42.23
2018-11-22T20:25:59.930Z,38.73
2018-11-22T20:28:29.377Z,41.57
2018-11-22T20:30:59.250Z,36.77
2018-11-22T20:33:28.587Z,44.93
2018-11-22T20:35:58.045Z,43.43
2018-11-22T20:38:28.216Z,47.77
2018-11-22T20:40:57.582Z,41.10
2018-11-22T20:43:26.822Z,45.43
2018-11-22T20:45:56.541Z,50.37
2018-11-22T20:48:26.187Z,40.00
2018-11-22T20:50:55.165Z,43.40
2018-11-22T20:53:24.355Z,44.53
2018-11-22T20:55:53.805Z,52.90
2018-11-22T20:58:23.722Z,47.43
2018-11-22T21:00:52.826Z,47.93
2018-11-22T21:03:21.854Z,51.47
2018-11-22T21:05:50.848Z,45.13
2018-11-22T21:08:19.719Z,46.97
2018-11-22T21:10:48.706Z,46.50
2018-11-22T21:13:17.541Z,49.90
2018-11-22T21:15:46.377Z,44.63
2018-11-22T21:18:15.056Z,42.97
2018-11-22T21:20:43.633Z,35.57
2018-11-22T21:23:12.306Z,47.60
2018-11-22T21:25:41.014Z,39.03
2018-11-22T21:28:09.559Z,37.50
2018-11-22T21:30:39.503Z,35.73
2018-11-22T21:33:09.070Z,39.47
2018-11-22T21:35:37.973Z,31.30
2018-11-22T21:38:08.376Z,41.53
2018-11-22T21:40:37.277Z,36.57
2018-11-22T21:43:05.968Z,36.73
2018-11-22T21:45:35.201Z,37.90
2018-11-22T21:48:03.786Z,40.20
2018-11-22T21:50:32.383Z,36.30
2018-11-22T21:53:00.925Z,42.87
2018-11-22T21:55:30.105Z,42.37
2018-11-22T21:58:00.337Z,51.90
2018-11-22T22:00:35.076Z,46.03
2018-11-22T22:03:05.220Z,42.47
2018-11-22T22:05:33.880Z,41.17
2018-11-22T22:08:02.575Z,35.60
2018-11-22T22:10:31.239Z,33.60
2018-11-22T22:12:59.801Z,45.97
2018-11-22T22:15:29.608Z,38.57
2018-11-22T22:17:58.310Z,48.70
2018-11-22T22:20:28.449Z,38.03
2018-11-22T22:22:56.968Z,39.13
2018-11-22T22:25:26.513Z,38.57
2018-11-22T22:27:55.754Z,38.40
2018-11-22T22:30:33.678Z,43.63
2018-11-22T22:33:03.720Z,46.60
2018-11-22T22:35:32.278Z,39.80
2018-11-22T22:38:00.877Z,46.93
2018-11-22T22:40:30.473Z,42.87
2018-11-22T22:42:59.546Z,41.40
2018-11-22T22:45:29.167Z,39.97
2018-11-22T22:47:58.442Z,46.43
2018-11-22T22:50:28.098Z,46.90
2018-11-22T22:52:57.914Z,43.33
2018-11-22T22:55:26.964Z,35.77
2018-11-22T22:57:55.531Z,37.37
2018-11-22T23:00:31.329Z,43.00
2018-11-22T23:03:01.331Z,40.20
2018-11-22T23:05:30.526Z,39.00
2018-11-22T23:07:59.059Z,38.30
2018-11-22T23:10:27.718Z,33.40
2018-11-22T23:12:57.050Z,39.13
2018-11-22T23:15:26.680Z,36.87
2018-11-22T23:17:55.217Z,39.13
2018-11-22T23:20:25.310Z,39.47
2018-11-22T23:22:53.923Z,37.37
2018-11-22T23:25:23.287Z,31.50
2018-11-22T23:27:51.946Z,33.60
2018-11-22T23:30:27.575Z,34.53
2018-11-22T23:32:58.521Z,33.03
2018-11-22T23:35:27.062Z,31.70
2018-11-22T23:37:55.681Z,29.07
2018-11-22T23:40:25.501Z,32.87
2018-11-22T23:42:53.988Z,38.37
2018-11-22T23:45:24.042Z,33.50
2018-11-22T23:47:52.523Z,32.87
2018-11-22T23:50:23.441Z,32.83
2018-11-22T23:52:53.414Z,29.97
2018-11-22T23:55:22.139Z,24.83
2018-11-22T23:57:50.711Z,32.33
